Absaraka, ND (58002)

10:24 AM CDT on September 04, 2015 (GMT -0500)
Home of the Absaraka Crows | | Change Station
CLOSE
Current Station
Personal Weather Station
Location: Absaraka, ND
Elevation: 1066 ft
Nearby Weather Stations

Elev 1066 ft 46.98 °N, 97.39 °W | Updated 6 seconds ago

Partly Cloudy
Partly Cloudy
78.4 °F
Feels Like 82 °F
N
7.6
Wind Variable Wind from South
Gusts 13.6 mph

Today
High -- | Low -- °F
--% Chance of Precip.
Yesterday
High -- | Low -- °F
Precip. -- in
6:52 AM 8:03 PM
Waning Gibbous, 58% visible
Pressure 29.74 in
Visibility 10.0 miles
Clouds Few 4300 ft
Few 11000 ft
Heat Index 82 °F
Dew Point 76 °F
Humidity 91%
Rainfall 0.00 in
Snow Depth Not available.
UV 3 out of 12
Pollen 11.60 out of 12
Air Quality Not available.
Flu Activity Not available.
METAR KFAR 041453Z 14018G22KT 10SM FEW043 FEW110 26/22 A2976 RMK AO2 RAB36E50 SLP070 P0000 60000 T02610222 50000
Pressure 29.74 in
Visibility 10.0 miles
Clouds Few 4300 ft
Few 11000 ft
Heat Index 82 °F
Dew Point 76 °F
Humidity 91%
Rainfall 0.00 in
Snow Depth Not available.
UV 3 out of 12
Pollen 11.60 out of 12
Air Quality Not available.
Flu Activity Not available.
METAR KFAR 041453Z 14018G22KT 10SM FEW043 FEW110 26/22 A2976 RMK AO2 RAB36E50 SLP070 P0000 60000 T02610222 50000

10-Day Weather Forecast

×

Almanac

Astronomy

Sep. 04, 2015 Rise Set
Actual Time
Civil Twilight
Nautical Twilight
Astronomical Twilight
Moon
Length of Visible Light
Length of Day
Tomorrow will be .
, % of the Moon is Illuminated

Today's Extremes

State Highs State Lows

Community

WunderPhotos

Upload Photos

1,852,194 photos uploaded!

WunderBlogs® & News

Nearby

Air Quality

  Air Quality AQ Index Pollutant
Not available.

Snow Depth

Station Depth Elevation

Earthquake Activity

City Distance Mag. Time & Date
Minimum magnitude displayed is 2.5.

Coastal Water Temperatures

Place Temperature

Stations

Nearby Weather Stations

Station Location Temp. Windchill Dew Point Humidity Wind Precip. Elev Updated Type